sensor_id;sensor_type;location;lat;lon;timestamp;P1;durP1;ratioP1;P2;durP2;ratioP2
15246;SDS011;7726;48.820;9.248;2022-09-03T00:01:28;3.13;;;1.30;;
15246;SDS011;7726;48.820;9.248;2022-09-03T00:03:58;4.28;;;1.40;;
15246;SDS011;7726;48.820;9.248;2022-09-03T00:06:29;1.00;;;0.90;;
15246;SDS011;7726;48.820;9.248;2022-09-03T00:08:59;1.30;;;1.30;;
15246;SDS011;7726;48.820;9.248;2022-09-03T00:11:28;1.25;;;1.15;;
15246;SDS011;7726;48.820;9.248;2022-09-03T00:14:00;1.40;;;1.30;;
15246;SDS011;7726;48.820;9.248;2022-09-03T00:16:29;1.80;;;1.42;;
15246;SDS011;7726;48.820;9.248;2022-09-03T00:19:00;3.72;;;1.20;;
15246;SDS011;7726;48.820;9.248;2022-09-03T00:21:31;1.73;;;1.45;;
15246;SDS011;7726;48.820;9.248;2022-09-03T00:24:00;1.52;;;1.10;;
15246;SDS011;7726;48.820;9.248;2022-09-03T00:26:29;2.17;;;1.33;;
15246;SDS011;7726;48.820;9.248;2022-09-03T00:29:02;1.55;;;1.27;;
15246;SDS011;7726;48.820;9.248;2022-09-03T00:31:32;2.60;;;1.08;;
15246;SDS011;7726;48.820;9.248;2022-09-03T00:34:04;1.23;;;1.13;;
15246;SDS011;7726;48.820;9.248;2022-09-03T00:36:33;3.00;;;1.33;;
15246;SDS011;7726;48.820;9.248;2022-09-03T00:39:01;1.20;;;1.10;;
15246;SDS011;7726;48.820;9.248;2022-09-03T00:41:30;1.13;;;1.10;;
15246;SDS011;7726;48.820;9.248;2022-09-03T00:44:07;1.38;;;1.10;;
15246;SDS011;7726;48.820;9.248;2022-09-03T00:46:37;1.95;;;1.77;;
15246;SDS011;7726;48.820;9.248;2022-09-03T00:49:20;1.13;;;1.10;;
15246;SDS011;7726;48.820;9.248;2022-09-03T00:51:53;3.25;;;1.30;;
15246;SDS011;7726;48.820;9.248;2022-09-03T00:54:25;2.63;;;1.40;;
15246;SDS011;7726;48.820;9.248;2022-09-03T00:56:56;3.13;;;1.30;;
15246;SDS011;7726;48.820;9.248;2022-09-03T00:59:32;2.03;;;1.20;;
15246;SDS011;7726;48.820;9.248;2022-09-03T01:02:04;2.30;;;1.10;;
15246;SDS011;7726;48.820;9.248;2022-09-03T01:04:35;1.90;;;1.42;;
15246;SDS011;7726;48.820;9.248;2022-09-03T01:07:09;2.55;;;1.25;;
15246;SDS011;7726;48.820;9.248;2022-09-03T01:09:43;1.20;;;1.17;;
15246;SDS011;7726;48.820;9.248;2022-09-03T01:12:14;4.40;;;1.45;;
15246;SDS011;7726;48.820;9.248;2022-09-03T01:14:48;3.38;;;1.23;;
15246;SDS011;7726;48.820;9.248;2022-09-03T01:17:20;2.58;;;1.40;;
15246;SDS011;7726;48.820;9.248;2022-09-03T01:20:03;2.78;;;1.30;;
15246;SDS011;7726;48.820;9.248;2022-09-03T01:22:43;2.47;;;1.13;;
15246;SDS011;7726;48.820;9.248;2022-09-03T01:25:17;1.10;;;1.00;;
15246;SDS011;7726;48.820;9.248;2022-09-03T01:28:01;2.15;;;1.10;;
15246;SDS011;7726;48.820;9.248;2022-09-03T01:30:32;1.60;;;1.25;;
15246;SDS011;7726;48.820;9.248;2022-09-03T01:33:04;1.13;;;1.02;;
15246;SDS011;7726;48.820;9.248;2022-09-03T01:35:36;1.95;;;1.27;;
15246;SDS011;7726;48.820;9.248;2022-09-03T01:38:08;2.55;;;1.27;;
15246;SDS011;7726;48.820;9.248;2022-09-03T01:40:41;1.33;;;1.23;;
15246;SDS011;7726;48.820;9.248;2022-09-03T01:43:16;1.45;;;1.35;;
15246;SDS011;7726;48.820;9.248;2022-09-03T01:45:50;1.70;;;1.17;;
15246;SDS011;7726;48.820;9.248;2022-09-03T01:48:22;3.60;;;1.30;;
15246;SDS011;7726;48.820;9.248;2022-09-03T01:50:55;1.27;;;1.25;;
15246;SDS011;7726;48.820;9.248;2022-09-03T01:53:27;1.20;;;1.20;;
15246;SDS011;7726;48.820;9.248;2022-09-03T01:56:10;2.05;;;1.15;;
15246;SDS011;7726;48.820;9.248;2022-09-03T01:58:41;1.33;;;1.20;;
15246;SDS011;7726;48.820;9.248;2022-09-03T02:01:12;2.58;;;1.30;;
15246;SDS011;7726;48.820;9.248;2022-09-03T02:03:41;1.50;;;1.13;;
15246;SDS011;7726;48.820;9.248;2022-09-03T02:06:10;2.78;;;1.10;;
15246;SDS011;7726;48.820;9.248;2022-09-03T02:08:37;1.27;;;1.27;;
15246;SDS011;7726;48.820;9.248;2022-09-03T02:11:06;3.13;;;1.48;;
15246;SDS011;7726;48.820;9.248;2022-09-03T02:13:35;1.83;;;1.38;;
15246;SDS011;7726;48.820;9.248;2022-09-03T02:16:06;1.20;;;1.20;;
15246;SDS011;7726;48.820;9.248;2022-09-03T02:18:37;1.30;;;1.20;;
15246;SDS011;7726;48.820;9.248;2022-09-03T02:21:07;1.35;;;1.20;;
15246;SDS011;7726;48.820;9.248;2022-09-03T02:23:37;2.00;;;1.17;;
15246;SDS011;7726;48.820;9.248;2022-09-03T02:26:04;1.15;;;1.05;;
15246;SDS011;7726;48.820;9.248;2022-09-03T02:28:34;1.23;;;1.23;;
15246;SDS011;7726;48.820;9.248;2022-09-03T02:31:01;1.30;;;1.20;;
15246;SDS011;7726;48.820;9.248;2022-09-03T02:33:29;1.33;;;1.20;;
15246;SDS011;7726;48.820;9.248;2022-09-03T02:35:57;1.25;;;1.15;;
15246;SDS011;7726;48.820;9.248;2022-09-03T02:38:24;1.23;;;1.13;;
15246;SDS011;7726;48.820;9.248;2022-09-03T02:40:52;1.42;;;1.33;;
15246;SDS011;7726;48.820;9.248;2022-09-03T02:43:20;1.40;;;1.30;;
15246;SDS011;7726;48.820;9.248;2022-09-03T02:45:49;1.10;;;1.10;;
15246;SDS011;7726;48.820;9.248;2022-09-03T02:48:19;2.05;;;1.30;;
15246;SDS011;7726;48.820;9.248;2022-09-03T02:50:50;2.33;;;1.20;;
15246;SDS011;7726;48.820;9.248;2022-09-03T02:53:17;3.03;;;1.30;;
15246;SDS011;7726;48.820;9.248;2022-09-03T02:55:44;7.05;;;1.38;;
15246;SDS011;7726;48.820;9.248;2022-09-03T02:58:11;2.28;;;1.33;;
15246;SDS011;7726;48.820;9.248;2022-09-03T03:00:39;2.85;;;1.50;;
15246;SDS011;7726;48.820;9.248;2022-09-03T03:03:06;1.38;;;1.33;;
15246;SDS011;7726;48.820;9.248;2022-09-03T03:05:35;1.63;;;1.52;;
15246;SDS011;7726;48.820;9.248;2022-09-03T03:08:05;2.15;;;1.40;;
15246;SDS011;7726;48.820;9.248;2022-09-03T03:10:33;2.83;;;1.17;;
15246;SDS011;7726;48.820;9.248;2022-09-03T03:13:00;1.23;;;1.15;;
15246;SDS011;7726;48.820;9.248;2022-09-03T03:15:27;1.73;;;1.40;;
15246;SDS011;7726;48.820;9.248;2022-09-03T03:17:54;1.52;;;1.30;;
15246;SDS011;7726;48.820;9.248;2022-09-03T03:20:21;1.17;;;1.15;;
15246;SDS011;7726;48.820;9.248;2022-09-03T03:22:49;1.90;;;1.17;;
15246;SDS011;7726;48.820;9.248;2022-09-03T03:25:17;1.63;;;1.35;;
15246;SDS011;7726;48.820;9.248;2022-09-03T03:27:44;1.27;;;1.20;;
15246;SDS011;7726;48.820;9.248;2022-09-03T03:30:11;1.40;;;1.30;;
15246;SDS011;7726;48.820;9.248;2022-09-03T03:32:39;1.38;;;1.27;;
15246;SDS011;7726;48.820;9.248;2022-09-03T03:35:06;1.80;;;1.50;;
15246;SDS011;7726;48.820;9.248;2022-09-03T03:37:35;1.80;;;1.40;;
15246;SDS011;7726;48.820;9.248;2022-09-03T03:40:03;1.73;;;1.50;;
15246;SDS011;7726;48.820;9.248;2022-09-03T03:42:32;2.78;;;1.27;;
15246;SDS011;7726;48.820;9.248;2022-09-03T03:45:00;2.30;;;1.40;;
15246;SDS011;7726;48.820;9.248;2022-09-03T03:47:27;1.50;;;1.40;;
15246;SDS011;7726;48.820;9.248;2022-09-03T03:49:55;1.83;;;1.23;;
15246;SDS011;7726;48.820;9.248;2022-09-03T03:52:22;3.72;;;1.60;;
15246;SDS011;7726;48.820;9.248;2022-09-03T03:54:49;1.50;;;1.40;;
15246;SDS011;7726;48.820;9.248;2022-09-03T03:57:16;1.73;;;1.40;;
15246;SDS011;7726;48.820;9.248;2022-09-03T03:59:45;1.70;;;1.40;;
15246;SDS011;7726;48.820;9.248;2022-09-03T04:02:12;1.50;;;1.30;;
15246;SDS011;7726;48.820;9.248;2022-09-03T04:04:40;1.10;;;1.10;;
15246;SDS011;7726;48.820;9.248;2022-09-03T04:07:07;1.60;;;1.50;;
15246;SDS011;7726;48.820;9.248;2022-09-03T04:09:34;1.48;;;1.38;;
15246;SDS011;7726;48.820;9.248;2022-09-03T04:12:01;3.97;;;3.45;;
15246;SDS011;7726;48.820;9.248;2022-09-03T04:14:32;3.25;;;2.95;;
15246;SDS011;7726;48.820;9.248;2022-09-03T04:17:01;2.63;;;2.30;;
15246;SDS011;7726;48.820;9.248;2022-09-03T04:19:28;2.13;;;1.90;;
15246;SDS011;7726;48.820;9.248;2022-09-03T04:21:55;1.35;;;1.25;;
15246;SDS011;7726;48.820;9.248;2022-09-03T04:24:23;2.28;;;1.38;;
15246;SDS011;7726;48.820;9.248;2022-09-03T04:26:51;1.60;;;1.50;;
15246;SDS011;7726;48.820;9.248;2022-09-03T04:29:18;5.30;;;1.40;;
15246;SDS011;7726;48.820;9.248;2022-09-03T04:31:46;3.75;;;1.90;;
15246;SDS011;7726;48.820;9.248;2022-09-03T04:34:29;3.53;;;1.40;;
15246;SDS011;7726;48.820;9.248;2022-09-03T04:36:56;1.42;;;1.33;;
15246;SDS011;7726;48.820;9.248;2022-09-03T04:39:24;3.05;;;1.40;;
15246;SDS011;7726;48.820;9.248;2022-09-03T04:41:51;3.28;;;1.88;;
15246;SDS011;7726;48.820;9.248;2022-09-03T04:44:18;1.70;;;1.60;;
15246;SDS011;7726;48.820;9.248;2022-09-03T04:46:45;1.77;;;1.65;;
15246;SDS011;7726;48.820;9.248;2022-09-03T04:49:13;4.88;;;1.70;;
15246;SDS011;7726;48.820;9.248;2022-09-03T04:51:42;5.68;;;2.08;;
15246;SDS011;7726;48.820;9.248;2022-09-03T04:54:09;4.43;;;1.67;;
15246;SDS011;7726;48.820;9.248;2022-09-03T04:56:37;1.63;;;1.50;;
15246;SDS011;7726;48.820;9.248;2022-09-03T04:59:05;1.50;;;1.40;;
15246;SDS011;7726;48.820;9.248;2022-09-03T05:01:33;2.72;;;1.77;;
15246;SDS011;7726;48.820;9.248;2022-09-03T05:04:01;4.03;;;1.60;;
15246;SDS011;7726;48.820;9.248;2022-09-03T05:06:29;1.40;;;1.30;;
15246;SDS011;7726;48.820;9.248;2022-09-03T05:08:58;2.53;;;1.73;;
15246;SDS011;7726;48.820;9.248;2022-09-03T05:11:26;2.83;;;1.58;;
15246;SDS011;7726;48.820;9.248;2022-09-03T05:13:55;2.00;;;1.80;;
15246;SDS011;7726;48.820;9.248;2022-09-03T05:16:23;2.60;;;1.80;;
15246;SDS011;7726;48.820;9.248;2022-09-03T05:18:52;1.60;;;1.50;;
15246;SDS011;7726;48.820;9.248;2022-09-03T05:21:19;1.75;;;1.60;;
15246;SDS011;7726;48.820;9.248;2022-09-03T05:23:48;5.00;;;1.55;;
15246;SDS011;7726;48.820;9.248;2022-09-03T05:26:17;3.33;;;1.25;;
15246;SDS011;7726;48.820;9.248;2022-09-03T05:28:44;3.58;;;1.75;;
15246;SDS011;7726;48.820;9.248;2022-09-03T05:31:12;3.15;;;1.80;;
15246;SDS011;7726;48.820;9.248;2022-09-03T05:33:41;1.75;;;1.60;;
15246;SDS011;7726;48.820;9.248;2022-09-03T05:36:09;1.42;;;1.33;;
15246;SDS011;7726;48.820;9.248;2022-09-03T05:38:37;2.70;;;1.50;;
15246;SDS011;7726;48.820;9.248;2022-09-03T05:41:05;1.60;;;1.50;;
15246;SDS011;7726;48.820;9.248;2022-09-03T05:43:34;2.35;;;1.50;;
15246;SDS011;7726;48.820;9.248;2022-09-03T05:46:02;1.80;;;1.30;;
15246;SDS011;7726;48.820;9.248;2022-09-03T05:48:30;1.58;;;1.50;;
15246;SDS011;7726;48.820;9.248;2022-09-03T05:50:58;3.78;;;1.77;;
15246;SDS011;7726;48.820;9.248;2022-09-03T05:53:26;2.10;;;1.52;;
15246;SDS011;7726;48.820;9.248;2022-09-03T05:55:54;1.50;;;1.40;;
15246;SDS011;7726;48.820;9.248;2022-09-03T05:58:21;1.67;;;1.58;;
15246;SDS011;7726;48.820;9.248;2022-09-03T06:00:50;2.90;;;1.65;;
15246;SDS011;7726;48.820;9.248;2022-09-03T06:03:17;3.10;;;1.73;;
15246;SDS011;7726;48.820;9.248;2022-09-03T06:05:48;2.17;;;2.00;;
15246;SDS011;7726;48.820;9.248;2022-09-03T06:08:15;2.88;;;1.40;;
15246;SDS011;7726;48.820;9.248;2022-09-03T06:10:43;2.03;;;1.60;;
15246;SDS011;7726;48.820;9.248;2022-09-03T06:13:10;1.63;;;1.50;;
15246;SDS011;7726;48.820;9.248;2022-09-03T06:15:37;2.90;;;1.55;;
15246;SDS011;7726;48.820;9.248;2022-09-03T06:18:06;1.67;;;1.58;;
15246;SDS011;7726;48.820;9.248;2022-09-03T06:20:33;1.80;;;1.70;;
15246;SDS011;7726;48.820;9.248;2022-09-03T06:23:00;1.70;;;1.60;;
15246;SDS011;7726;48.820;9.248;2022-09-03T06:25:28;2.35;;;1.73;;
15246;SDS011;7726;48.820;9.248;2022-09-03T06:27:55;1.63;;;1.52;;
15246;SDS011;7726;48.820;9.248;2022-09-03T06:30:23;2.72;;;1.52;;
15246;SDS011;7726;48.820;9.248;2022-09-03T06:32:51;1.50;;;1.40;;
15246;SDS011;7726;48.820;9.248;2022-09-03T06:35:19;1.63;;;1.52;;
15246;SDS011;7726;48.820;9.248;2022-09-03T06:37:47;2.05;;;1.30;;
15246;SDS011;7726;48.820;9.248;2022-09-03T06:40:16;1.77;;;1.67;;
15246;SDS011;7726;48.820;9.248;2022-09-03T06:42:54;1.80;;;1.70;;
15246;SDS011;7726;48.820;9.248;2022-09-03T06:45:26;3.55;;;1.88;;
15246;SDS011;7726;48.820;9.248;2022-09-03T06:47:54;3.78;;;2.03;;
15246;SDS011;7726;48.820;9.248;2022-09-03T06:50:22;2.17;;;1.85;;
15246;SDS011;7726;48.820;9.248;2022-09-03T06:52:50;3.05;;;1.92;;
15246;SDS011;7726;48.820;9.248;2022-09-03T06:55:19;2.33;;;2.00;;
15246;SDS011;7726;48.820;9.248;2022-09-03T06:57:46;2.20;;;2.00;;
15246;SDS011;7726;48.820;9.248;2022-09-03T07:00:14;1.98;;;1.88;;
15246;SDS011;7726;48.820;9.248;2022-09-03T07:02:41;2.22;;;2.03;;
15246;SDS011;7726;48.820;9.248;2022-09-03T07:05:09;2.50;;;1.90;;
15246;SDS011;7726;48.820;9.248;2022-09-03T07:07:37;4.60;;;2.15;;
15246;SDS011;7726;48.820;9.248;2022-09-03T07:10:05;2.42;;;1.70;;
15246;SDS011;7726;48.820;9.248;2022-09-03T07:12:36;3.47;;;1.90;;
15246;SDS011;7726;48.820;9.248;2022-09-03T07:15:03;4.85;;;4.28;;
15246;SDS011;7726;48.820;9.248;2022-09-03T07:17:30;4.15;;;2.85;;
15246;SDS011;7726;48.820;9.248;2022-09-03T07:19:57;2.03;;;1.90;;
15246;SDS011;7726;48.820;9.248;2022-09-03T07:22:24;3.22;;;2.03;;
15246;SDS011;7726;48.820;9.248;2022-09-03T07:24:53;2.42;;;2.00;;
15246;SDS011;7726;48.820;9.248;2022-09-03T07:27:20;1.98;;;1.88;;
15246;SDS011;7726;48.820;9.248;2022-09-03T07:29:48;3.10;;;2.10;;
15246;SDS011;7726;48.820;9.248;2022-09-03T07:32:15;2.40;;;2.13;;
15246;SDS011;7726;48.820;9.248;2022-09-03T07:34:42;1.98;;;1.88;;
15246;SDS011;7726;48.820;9.248;2022-09-03T07:37:09;2.30;;;2.17;;
15246;SDS011;7726;48.820;9.248;2022-09-03T07:39:36;1.88;;;1.77;;
15246;SDS011;7726;48.820;9.248;2022-09-03T07:42:06;3.42;;;2.00;;
15246;SDS011;7726;48.820;9.248;2022-09-03T07:44:35;2.10;;;2.00;;
15246;SDS011;7726;48.820;9.248;2022-09-03T07:47:02;2.03;;;1.92;;
15246;SDS011;7726;48.820;9.248;2022-09-03T07:49:30;2.22;;;1.98;;
15246;SDS011;7726;48.820;9.248;2022-09-03T07:51:57;1.90;;;1.80;;
15246;SDS011;7726;48.820;9.248;2022-09-03T07:54:27;2.90;;;2.53;;
15246;SDS011;7726;48.820;9.248;2022-09-03T07:56:55;2.13;;;1.92;;
15246;SDS011;7726;48.820;9.248;2022-09-03T07:59:24;3.97;;;2.00;;
15246;SDS011;7726;48.820;9.248;2022-09-03T08:01:51;2.10;;;1.90;;
15246;SDS011;7726;48.820;9.248;2022-09-03T08:04:19;4.05;;;2.08;;
15246;SDS011;7726;48.820;9.248;2022-09-03T08:06:46;2.88;;;2.13;;
15246;SDS011;7726;48.820;9.248;2022-09-03T08:09:14;3.60;;;2.00;;
15246;SDS011;7726;48.820;9.248;2022-09-03T08:11:41;2.10;;;2.00;;
15246;SDS011;7726;48.820;9.248;2022-09-03T08:14:09;2.10;;;1.80;;
15246;SDS011;7726;48.820;9.248;2022-09-03T08:16:39;3.88;;;2.40;;
15246;SDS011;7726;48.820;9.248;2022-09-03T08:19:06;2.47;;;2.28;;
15246;SDS011;7726;48.820;9.248;2022-09-03T08:21:34;2.60;;;2.40;;
15246;SDS011;7726;48.820;9.248;2022-09-03T08:24:02;3.40;;;2.38;;
15246;SDS011;7726;48.820;9.248;2022-09-03T08:26:30;3.28;;;2.35;;
15246;SDS011;7726;48.820;9.248;2022-09-03T08:28:57;2.50;;;2.30;;
15246;SDS011;7726;48.820;9.248;2022-09-03T08:31:25;4.22;;;2.40;;
15246;SDS011;7726;48.820;9.248;2022-09-03T08:33:55;2.90;;;2.35;;
15246;SDS011;7726;48.820;9.248;2022-09-03T08:36:23;2.55;;;2.35;;
15246;SDS011;7726;48.820;9.248;2022-09-03T08:38:51;2.58;;;2.38;;
15246;SDS011;7726;48.820;9.248;2022-09-03T08:41:19;2.83;;;2.63;;
15246;SDS011;7726;48.820;9.248;2022-09-03T08:43:54;2.17;;;2.00;;
15246;SDS011;7726;48.820;9.248;2022-09-03T08:46:24;5.28;;;2.40;;
15246;SDS011;7726;48.820;9.248;2022-09-03T08:48:59;2.45;;;2.25;;
15246;SDS011;7726;48.820;9.248;2022-09-03T08:51:26;4.72;;;2.67;;
15246;SDS011;7726;48.820;9.248;2022-09-03T08:53:53;4.10;;;2.53;;
15246;SDS011;7726;48.820;9.248;2022-09-03T08:56:23;3.15;;;2.85;;
15246;SDS011;7726;48.820;9.248;2022-09-03T08:58:51;2.72;;;2.53;;
15246;SDS011;7726;48.820;9.248;2022-09-03T09:01:22;3.53;;;2.83;;
15246;SDS011;7726;48.820;9.248;2022-09-03T09:03:52;2.78;;;2.58;;
15246;SDS011;7726;48.820;9.248;2022-09-03T09:06:25;2.45;;;2.22;;
15246;SDS011;7726;48.820;9.248;2022-09-03T09:08:58;2.33;;;2.10;;
15246;SDS011;7726;48.820;9.248;2022-09-03T09:11:29;4.13;;;2.20;;
15246;SDS011;7726;48.820;9.248;2022-09-03T09:13:58;3.75;;;2.50;;
15246;SDS011;7726;48.820;9.248;2022-09-03T09:16:30;2.33;;;2.22;;
15246;SDS011;7726;48.820;9.248;2022-09-03T09:19:04;3.28;;;2.60;;
15246;SDS011;7726;48.820;9.248;2022-09-03T09:21:38;2.63;;;2.42;;
15246;SDS011;7726;48.820;9.248;2022-09-03T09:24:12;2.20;;;2.10;;
15246;SDS011;7726;48.820;9.248;2022-09-03T09:26:46;2.60;;;2.40;;
15246;SDS011;7726;48.820;9.248;2022-09-03T09:29:13;3.70;;;2.63;;
15246;SDS011;7726;48.820;9.248;2022-09-03T09:31:41;2.95;;;2.38;;
15246;SDS011;7726;48.820;9.248;2022-09-03T09:34:09;2.67;;;2.40;;
15246;SDS011;7726;48.820;9.248;2022-09-03T09:36:40;3.25;;;2.25;;
15246;SDS011;7726;48.820;9.248;2022-09-03T09:39:08;2.35;;;2.22;;
15246;SDS011;7726;48.820;9.248;2022-09-03T09:41:35;2.50;;;2.30;;
15246;SDS011;7726;48.820;9.248;2022-09-03T09:44:03;3.22;;;2.92;;
15246;SDS011;7726;48.820;9.248;2022-09-03T09:46:31;3.28;;;2.35;;
15246;SDS011;7726;48.820;9.248;2022-09-03T09:49:00;2.50;;;2.30;;
15246;SDS011;7726;48.820;9.248;2022-09-03T09:51:29;2.88;;;2.58;;
15246;SDS011;7726;48.820;9.248;2022-09-03T09:54:01;2.70;;;2.50;;
15246;SDS011;7726;48.820;9.248;2022-09-03T09:56:28;2.72;;;2.53;;
15246;SDS011;7726;48.820;9.248;2022-09-03T09:59:02;3.05;;;2.75;;
15246;SDS011;7726;48.820;9.248;2022-09-03T10:01:30;2.83;;;2.40;;
15246;SDS011;7726;48.820;9.248;2022-09-03T10:03:57;2.42;;;2.30;;
15246;SDS011;7726;48.820;9.248;2022-09-03T10:06:27;3.50;;;2.40;;
15246;SDS011;7726;48.820;9.248;2022-09-03T10:09:14;2.67;;;2.50;;
15246;SDS011;7726;48.820;9.248;2022-09-03T10:11:43;4.40;;;2.85;;
15246;SDS011;7726;48.820;9.248;2022-09-03T10:14:17;3.38;;;2.90;;
15246;SDS011;7726;48.820;9.248;2022-09-03T10:16:46;3.30;;;2.35;;
15246;SDS011;7726;48.820;9.248;2022-09-03T10:19:18;3.95;;;2.30;;
15246;SDS011;7726;48.820;9.248;2022-09-03T10:21:48;7.47;;;2.85;;
15246;SDS011;7726;48.820;9.248;2022-09-03T10:24:28;2.55;;;2.40;;
15246;SDS011;7726;48.820;9.248;2022-09-03T10:26:57;2.70;;;2.50;;
15246;SDS011;7726;48.820;9.248;2022-09-03T10:29:25;3.03;;;2.58;;
15246;SDS011;7726;48.820;9.248;2022-09-03T10:31:57;2.63;;;2.40;;
15246;SDS011;7726;48.820;9.248;2022-09-03T10:34:28;2.70;;;2.50;;
15246;SDS011;7726;48.820;9.248;2022-09-03T10:36:59;2.90;;;2.58;;
15246;SDS011;7726;48.820;9.248;2022-09-03T10:39:34;2.63;;;2.38;;
15246;SDS011;7726;48.820;9.248;2022-09-03T10:42:07;5.65;;;2.25;;
15246;SDS011;7726;48.820;9.248;2022-09-03T10:44:53;2.47;;;2.28;;
15246;SDS011;7726;48.820;9.248;2022-09-03T10:47:28;4.38;;;2.47;;
15246;SDS011;7726;48.820;9.248;2022-09-03T10:50:00;2.70;;;2.50;;
15246;SDS011;7726;48.820;9.248;2022-09-03T10:52:30;5.63;;;2.55;;
15246;SDS011;7726;48.820;9.248;2022-09-03T10:55:05;2.33;;;2.05;;
15246;SDS011;7726;48.820;9.248;2022-09-03T10:57:39;2.97;;;2.78;;
15246;SDS011;7726;48.820;9.248;2022-09-03T11:00:11;2.45;;;2.28;;
15246;SDS011;7726;48.820;9.248;2022-09-03T11:05:11;3.03;;;2.30;;
15246;SDS011;7726;48.820;9.248;2022-09-03T11:07:40;8.32;;;2.65;;
15246;SDS011;7726;48.820;9.248;2022-09-03T11:10:12;4.00;;;2.50;;
15246;SDS011;7726;48.820;9.248;2022-09-03T11:12:42;2.67;;;2.47;;
15246;SDS011;7726;48.820;9.248;2022-09-03T11:15:12;3.78;;;3.22;;
15246;SDS011;7726;48.820;9.248;2022-09-03T11:17:43;5.45;;;2.75;;
15246;SDS011;7726;48.820;9.248;2022-09-03T11:20:13;3.97;;;2.83;;
15246;SDS011;7726;48.820;9.248;2022-09-03T11:22:42;4.55;;;2.53;;
15246;SDS011;7726;48.820;9.248;2022-09-03T11:25:13;2.35;;;2.22;;
15246;SDS011;7726;48.820;9.248;2022-09-03T11:27:48;3.03;;;2.75;;
15246;SDS011;7726;48.820;9.248;2022-09-03T11:30:21;3.70;;;2.50;;
15246;SDS011;7726;48.820;9.248;2022-09-03T11:32:50;2.90;;;2.70;;
15246;SDS011;7726;48.820;9.248;2022-09-03T11:35:23;2.60;;;2.40;;
15246;SDS011;7726;48.820;9.248;2022-09-03T11:37:52;2.78;;;2.55;;
15246;SDS011;7726;48.820;9.248;2022-09-03T11:40:27;2.95;;;2.70;;
15246;SDS011;7726;48.820;9.248;2022-09-03T11:43:03;4.03;;;2.55;;
15246;SDS011;7726;48.820;9.248;2022-09-03T11:45:35;6.18;;;2.70;;
15246;SDS011;7726;48.820;9.248;2022-09-03T11:48:15;2.97;;;2.78;;
15246;SDS011;7726;48.820;9.248;2022-09-03T11:50:50;3.08;;;2.85;;
15246;SDS011;7726;48.820;9.248;2022-09-03T11:53:22;2.75;;;2.55;;
15246;SDS011;7726;48.820;9.248;2022-09-03T11:55:54;3.30;;;2.58;;
15246;SDS011;7726;48.820;9.248;2022-09-03T11:58:23;3.17;;;2.85;;
15246;SDS011;7726;48.820;9.248;2022-09-03T12:00:51;3.35;;;2.90;;
15246;SDS011;7726;48.820;9.248;2022-09-03T12:03:21;2.83;;;2.60;;
15246;SDS011;7726;48.820;9.248;2022-09-03T12:05:58;3.00;;;2.80;;
15246;SDS011;7726;48.820;9.248;2022-09-03T12:08:38;4.60;;;2.72;;
15246;SDS011;7726;48.820;9.248;2022-09-03T12:11:18;3.47;;;3.17;;
15246;SDS011;7726;48.820;9.248;2022-09-03T12:13:49;3.20;;;2.80;;
15246;SDS011;7726;48.820;9.248;2022-09-03T12:16:26;2.92;;;2.72;;
15246;SDS011;7726;48.820;9.248;2022-09-03T12:18:59;3.10;;;2.80;;
15246;SDS011;7726;48.820;9.248;2022-09-03T12:21:27;3.78;;;2.72;;
15246;SDS011;7726;48.820;9.248;2022-09-03T12:23:54;3.67;;;2.83;;
15246;SDS011;7726;48.820;9.248;2022-09-03T12:26:24;5.80;;;3.00;;
15246;SDS011;7726;48.820;9.248;2022-09-03T12:28:52;3.17;;;2.88;;
15246;SDS011;7726;48.820;9.248;2022-09-03T12:31:20;5.03;;;2.90;;
15246;SDS011;7726;48.820;9.248;2022-09-03T12:33:49;2.95;;;2.70;;
15246;SDS011;7726;48.820;9.248;2022-09-03T12:36:18;3.10;;;2.80;;
15246;SDS011;7726;48.820;9.248;2022-09-03T12:38:54;3.30;;;3.00;;
15246;SDS011;7726;48.820;9.248;2022-09-03T12:41:36;4.25;;;3.85;;
15246;SDS011;7726;48.820;9.248;2022-09-03T12:44:39;6.88;;;3.83;;
15246;SDS011;7726;48.820;9.248;2022-09-03T12:53:42;3.28;;;2.28;;
15246;SDS011;7726;48.820;9.248;2022-09-03T12:56:09;3.70;;;2.20;;
15246;SDS011;7726;48.820;9.248;2022-09-03T12:58:43;3.08;;;2.20;;
15246;SDS011;7726;48.820;9.248;2022-09-03T13:01:15;3.22;;;2.17;;
15246;SDS011;7726;48.820;9.248;2022-09-03T13:03:46;2.22;;;2.13;;
15246;SDS011;7726;48.820;9.248;2022-09-03T13:06:19;2.35;;;2.10;;
15246;SDS011;7726;48.820;9.248;2022-09-03T13:08:47;3.20;;;2.40;;
15246;SDS011;7726;48.820;9.248;2022-09-03T13:11:16;3.20;;;1.73;;
15246;SDS011;7726;48.820;9.248;2022-09-03T13:13:51;6.25;;;2.00;;
15246;SDS011;7726;48.820;9.248;2022-09-03T13:19:12;5.43;;;2.50;;
15246;SDS011;7726;48.820;9.248;2022-09-03T13:21:44;2.53;;;2.17;;
15246;SDS011;7726;48.820;9.248;2022-09-03T13:24:19;4.30;;;2.42;;
15246;SDS011;7726;48.820;9.248;2022-09-03T13:26:55;3.88;;;2.50;;
15246;SDS011;7726;48.820;9.248;2022-09-03T13:29:36;2.22;;;2.03;;
15246;SDS011;7726;48.820;9.248;2022-09-03T13:32:07;2.85;;;1.70;;
15246;SDS011;7726;48.820;9.248;2022-09-03T13:34:36;2.28;;;1.67;;
15246;SDS011;7726;48.820;9.248;2022-09-03T13:37:10;3.28;;;1.83;;
15246;SDS011;7726;48.820;9.248;2022-09-03T13:39:38;1.73;;;1.63;;
15246;SDS011;7726;48.820;9.248;2022-09-03T13:42:08;1.60;;;1.50;;
15246;SDS011;7726;48.820;9.248;2022-09-03T13:44:41;2.05;;;1.55;;
15246;SDS011;7726;48.820;9.248;2022-09-03T13:47:11;3.25;;;1.70;;
15246;SDS011;7726;48.820;9.248;2022-09-03T13:49:46;5.38;;;1.55;;
15246;SDS011;7726;48.820;9.248;2022-09-03T13:52:33;2.25;;;1.45;;
15246;SDS011;7726;48.820;9.248;2022-09-03T13:55:07;5.38;;;1.58;;
15246;SDS011;7726;48.820;9.248;2022-09-03T13:57:36;1.25;;;1.17;;
15246;SDS011;7726;48.820;9.248;2022-09-03T14:00:07;1.40;;;1.30;;
15246;SDS011;7726;48.820;9.248;2022-09-03T14:02:41;3.03;;;1.55;;
15246;SDS011;7726;48.820;9.248;2022-09-03T14:05:13;1.85;;;1.27;;
15246;SDS011;7726;48.820;9.248;2022-09-03T14:07:46;1.70;;;1.13;;
15246;SDS011;7726;48.820;9.248;2022-09-03T14:10:20;3.40;;;1.30;;
15246;SDS011;7726;48.820;9.248;2022-09-03T14:12:49;2.47;;;1.90;;
15246;SDS011;7726;48.820;9.248;2022-09-03T14:15:21;1.70;;;1.60;;
15246;SDS011;7726;48.820;9.248;2022-09-03T14:17:55;1.50;;;1.40;;
15246;SDS011;7726;48.820;9.248;2022-09-03T14:20:24;3.55;;;1.50;;
15246;SDS011;7726;48.820;9.248;2022-09-03T14:22:53;2.65;;;1.60;;
15246;SDS011;7726;48.820;9.248;2022-09-03T14:25:22;1.70;;;1.60;;
15246;SDS011;7726;48.820;9.248;2022-09-03T14:27:51;2.33;;;1.38;;
15246;SDS011;7726;48.820;9.248;2022-09-03T14:30:27;1.67;;;1.45;;
15246;SDS011;7726;48.820;9.248;2022-09-03T14:33:00;1.50;;;1.40;;
15246;SDS011;7726;48.820;9.248;2022-09-03T14:35:34;1.70;;;1.60;;
15246;SDS011;7726;48.820;9.248;2022-09-03T14:40:44;1.85;;;1.63;;
15246;SDS011;7726;48.820;9.248;2022-09-03T14:43:15;1.70;;;1.60;;
15246;SDS011;7726;48.820;9.248;2022-09-03T14:48:45;4.68;;;1.42;;
15246;SDS011;7726;48.820;9.248;2022-09-03T14:51:20;2.13;;;1.40;;
15246;SDS011;7726;48.820;9.248;2022-09-03T14:56:48;3.33;;;1.55;;
15246;SDS011;7726;48.820;9.248;2022-09-03T14:59:32;2.03;;;1.20;;
15246;SDS011;7726;48.820;9.248;2022-09-03T15:02:06;1.90;;;1.65;;
15246;SDS011;7726;48.820;9.248;2022-09-03T15:04:49;2.30;;;1.35;;
15246;SDS011;7726;48.820;9.248;2022-09-03T15:07:21;1.85;;;1.65;;
15246;SDS011;7726;48.820;9.248;2022-09-03T15:09:53;2.53;;;1.40;;
15246;SDS011;7726;48.820;9.248;2022-09-03T15:12:28;1.30;;;1.20;;
15246;SDS011;7726;48.820;9.248;2022-09-03T15:15:00;2.33;;;1.65;;
15246;SDS011;7726;48.820;9.248;2022-09-03T15:17:34;1.35;;;1.05;;
15246;SDS011;7726;48.820;9.248;2022-09-03T15:20:13;1.45;;;1.13;;
15246;SDS011;7726;48.820;9.248;2022-09-03T15:22:53;3.00;;;1.20;;
15246;SDS011;7726;48.820;9.248;2022-09-03T15:25:25;1.38;;;1.08;;
15246;SDS011;7726;48.820;9.248;2022-09-03T15:30:43;1.42;;;1.13;;
15246;SDS011;7726;48.820;9.248;2022-09-03T15:33:14;0.93;;;0.93;;
15246;SDS011;7726;48.820;9.248;2022-09-03T15:38:38;1.85;;;1.05;;
15246;SDS011;7726;48.820;9.248;2022-09-03T15:41:08;1.23;;;1.15;;
15246;SDS011;7726;48.820;9.248;2022-09-03T15:43:36;0.90;;;0.90;;
15246;SDS011;7726;48.820;9.248;2022-09-03T15:46:04;1.00;;;1.00;;